Anson, Maine
Current Conditions -  °F | °C
As of 5:55 AM on Monday 20 Oct 2014 (Local Time) from KWVL Reporting Station
Broken Clouds Broken Clouds  
Wind Chill: 34°   Ceiling: 4600
Heat Index: 39°   Visibility: 10mi
Dew Point: 21°   Wind: 8mph
Humidity: 49%   Direction: 280°W
Pressure: 29.88"   Gusts: 18mph
Location:  44.8°N, 69.89°W
Report Text: KWVL 200955Z 28007G16KT 10SM BKN046 04/M06 A2988 RMK AO1
Loading
Personal Weather Stations






























Interactive Weather Map
Tropical Storm Tracking
New forecast layout! Learn more

10-Day Weather Forecast

Advertisements
Track Severe Weather on mobile